Enchantment of the Seas — C6FZ7 — position and weather

sailwx.info

Track history (hours):
 
Tides and Currents Weather Stations Pressure Air Temp Water Temp Dewpoint Dewpoint Depression Visibility Wind Speed Wind Dir Waves Ship Positions

Enchantment of the Seas (Bahamas)

Last reported at 2018-Feb-22 06:34 UTC. Time now 2018-Feb-22 17:09 UTC.
Position N 25°16' W 080°01'.

Type: Passenger vessel. MMSI: 311733000.

Date/timePositionNaut miles runAvg speedWind from/ knotsBaromVisibWave heightAir tempDewpointWater temp
2018-Feb-22 06:34N 25°16' W 080°01'115.0
2018-Feb-22 06:29N 25°17' W 079°60'715.0
2018-Feb-22 06:00N 25°23' W 079°55'714.9
2018-Feb-22 05:30N 25°28' W 079°50'714.9
2018-Feb-22 05:00N 25°34' W 079°44'815.1
2018-Feb-22 04:30N 25°39' W 079°38'5716.3
2018-Feb-22 01:00N 26°06' W 078°42'5 0.1 090 / 221027.027.0 23.021.625.0
2018-Feb-20 04:00N 26°06' W 078°48'4411.8 090 / 261025.010.8 23.020.125.0
2018-Feb-20 00:15N 25°59' W 079°37'313.4
2018-Feb-19 23:59N 25°58' W 079°40'713.8
2018-Feb-19 23:30N 25°55' W 079°47'714.0
2018-Feb-19 23:00N 25°52' W 079°54'714.1
2018-Feb-19 22:30N 25°48' W 080°00'510.3
2018-Feb-19 22:00N 25°46' W 080°05'5 9.3
2018-Feb-19 21:30N 25°47' W 080°10'0 0.2
2018-Feb-19 20:58N 25°47' W 080°11'0 0.0
2018-Feb-19 20:28N 25°47' W 080°11'0 0.0
2018-Feb-19 19:58N 25°47' W 080°11'0 0.0
2018-Feb-19 19:28N 25°47' W 080°11'0 0.0
2018-Feb-19 18:52N 25°47' W 080°11'0 0.0
2018-Feb-19 18:25N 25°47' W 080°11'0 0.0
2018-Feb-19 17:58N 25°47' W 080°11'0 0.0
2018-Feb-19 17:25N 25°47' W 080°11'0 0.0
2018-Feb-19 16:58N 25°47' W 080°11'0 0.0
2018-Feb-19 16:25N 25°47' W 080°11'0 0.0
2018-Feb-19 15:58N 25°47' W 080°11'0 0.0
2018-Feb-19 15:28N 25°47' W 080°11'0 0.0
2018-Feb-19 14:55N 25°47' W 080°11'0 0.0
2018-Feb-19 14:28N 25°47' W 080°11'0 0.0
2018-Feb-19 13:58N 25°47' W 080°11'0 0.0
2018-Feb-19 13:28N 25°47' W 080°11'0 0.0
2018-Feb-19 12:58N 25°47' W 080°11'0 0.0
2018-Feb-19 12:28N 25°47' W 080°11'0 0.0
2018-Feb-19 11:58N 25°47' W 080°11'0 1.0
2018-Feb-19 11:30N 25°47' W 080°10'5 9.5
2018-Feb-19 11:00N 25°46' W 080°05'510.6
2018-Feb-19 10:30N 25°48' W 079°59'612.9
2018-Feb-19 10:01N 25°52' W 079°53'713.2
2018-Feb-19 09:30N 25°55' W 079°47'12513.1
2018-Feb-19 00:00N 25°36' W 077°30'16 0.8 090 / 211024.027.0 23.020.125.0
2018-Feb-18 03:00N 25°24' W 077°18'65 3.8 110 / 121024.027.0 23.020.125.0
2018-Feb-17 10:00N 26°00' W 078°18'60 7.4 150 / 101021.410.8 22.019.0
2018-Feb-17 02:00N 26°06' W 079°24'619.8 160 / 91024.027.0 23.020.125.0
2018-Feb-17 01:41N 26°04' W 079°31'5 9.3
2018-Feb-17 01:10N 26°02' W 079°35'2 9.3
2018-Feb-17 00:59N 26°01' W 079°37'4 9.4
2018-Feb-17 00:30N 25°59' W 079°41'5 9.7
2018-Feb-17 00:00N 25°57' W 079°46'5 9.9
2018-Feb-16 23:30N 25°54' W 079°51'510.0
2018-Feb-16 23:00N 25°51' W 079°55'5 9.7
2018-Feb-16 22:30N 25°49' W 079°60'5 9.4
2018-Feb-16 22:00N 25°47' W 080°04'5 9.1
2018-Feb-16 21:31N 25°46' W 080°09'1 1.8
2018-Feb-16 21:01N 25°47' W 080°10'0 0.0
2018-Feb-16 20:30N 25°47' W 080°10'0 0.0
2018-Feb-16 20:00N 25°47' W 080°10'0 0.0
2018-Feb-16 19:31N 25°47' W 080°10'0 0.0
2018-Feb-16 19:00N 25°47' W 080°10'0 0.0
2018-Feb-16 18:31N 25°47' W 080°10'0 0.0
2018-Feb-16 18:01N 25°47' W 080°10'0 0.0
2018-Feb-16 17:30N 25°47' W 080°10'0 0.0
2018-Feb-16 17:01N 25°47' W 080°10'0 0.0
2018-Feb-16 16:30N 25°47' W 080°10'0 0.0
2018-Feb-16 16:00N 25°47' W 080°10'0 0.0
2018-Feb-16 15:25N 25°47' W 080°10'0 0.0
2018-Feb-16 14:55N 25°47' W 080°10'0 0.0
2018-Feb-16 14:28N 25°47' W 080°10'0 0.0
2018-Feb-16 13:58N 25°47' W 080°10'0 0.0
2018-Feb-16 13:28N 25°47' W 080°10'0 0.0
2018-Feb-16 12:58N 25°47' W 080°10'0 0.0
2018-Feb-16 12:28N 25°47' W 080°10'0 0.9
2018-Feb-16 12:00N 25°47' W 080°11'2 3.7
2018-Feb-16 11:30N 25°46' W 080°09'510.9
2018-Feb-16 11:00N 25°47' W 080°03'510.0
2018-Feb-16 10:30N 25°44' W 079°58'612.9
2018-Feb-16 10:00N 25°38' W 079°58'713.4
2018-Feb-16 09:30N 25°31' W 079°59'713.2
2018-Feb-16 09:00N 25°24' W 080°00'8614.2
2018-Feb-16 03:00N 24°18' W 081°00'81 3.9 090 / 131024.027.0 23.016.925.0
2018-Feb-15 06:17N 25°18' W 079°59'413.7
2018-Feb-15 05:59N 25°21' W 079°57'713.8
2018-Feb-15 05:30N 25°26' W 079°52'714.1
2018-Feb-15 05:00N 25°31' W 079°47'714.3
2018-Feb-15 04:29N 25°37' W 079°41'714.5
2018-Feb-15 03:59N 25°42' W 079°36'1615.9
2018-Feb-15 03:00N 25°54' W 079°24'111 5.8 100 / 111027.027.0 22.019.025.0
2018-Feb-14 08:00N 25°30' W 077°24'112 3.6 100 / 271026.910.8 23.018.5
2018-Feb-13 01:00N 26°00' W 079°24'815.2 090 / 141025.027.0 24.021.125.0
2018-Feb-13 00:30N 26°01' W 079°32'714.0
2018-Feb-13 00:00N 25°58' W 079°39'713.9
2018-Feb-12 23:31N 25°55' W 079°46'714.2
2018-Feb-12 23:00N 25°52' W 079°53'714.6
2018-Feb-12 22:31N 25°48' W 080°00'713.0
2018-Feb-12 22:00N 25°45' W 080°07'4 7.9
2018-Feb-12 21:30N 25°47' W 080°11'0 0.2
2018-Feb-12 20:55N 25°47' W 080°11'0 0.0
2018-Feb-12 20:28N 25°47' W 080°11'0 0.0
2018-Feb-12 19:58N 25°47' W 080°11'0 0.0
2018-Feb-12 19:28N 25°47' W 080°11'0 0.0
2018-Feb-12 18:58N 25°47' W 080°11'0 0.0
2018-Feb-12 18:28N 25°47' W 080°11'0 0.0
2018-Feb-12 17:58N 25°47' W 080°11'0 0.0
2018-Feb-12 17:28N 25°47' W 080°11'0 0.0
2018-Feb-12 16:58N 25°47' W 080°11'0 0.0
2018-Feb-12 16:28N 25°47' W 080°11'0 0.0
2018-Feb-12 15:58N 25°47' W 080°11'0 0.0
2018-Feb-12 15:28N 25°47' W 080°11'0 0.0
2018-Feb-12 14:58N 25°47' W 080°11'0 0.0
2018-Feb-12 14:28N 25°47' W 080°11'0 0.0
2018-Feb-12 13:58N 25°47' W 080°11'0 0.0
2018-Feb-12 13:28N 25°47' W 080°11'0 0.0
2018-Feb-12 12:58N 25°47' W 080°11'0 0.0
2018-Feb-12 12:28N 25°47' W 080°11'0 0.0
2018-Feb-12 11:52N 25°47' W 080°11'0 1.0
2018-Feb-12 11:30N 25°47' W 080°10'510.1
2018-Feb-12 11:00N 25°46' W 080°05'611.2
2018-Feb-12 10:30N 25°49' W 079°59'713.2
2018-Feb-12 09:59N 25°52' W 079°52'613.3
2018-Feb-12 09:29N 25°55' W 079°46'  
Track history (hours):
 
Tides and Currents Weather Stations Pressure Air Temp Water Temp Dewpoint Dewpoint Depression Visibility Wind Speed Wind Dir Waves Ship Positions

Enchantment of the Seas (Bahamas)

Last reported at 2018-Feb-22 06:34 UTC. Time now 2018-Feb-22 17:09 UTC.
Position N 25°16' W 080°01'.

Type: Passenger vessel. MMSI: 311733000.

Date/timePositionNaut miles runAvg speedWind from/ knotsBaromVisibWave heightAir tempDewpointWater temp
2018-Feb-22 06:34N 25°16' W 080°01'115.0
2018-Feb-22 06:29N 25°17' W 079°60'715.0
2018-Feb-22 06:00N 25°23' W 079°55'714.9
2018-Feb-22 05:30N 25°28' W 079°50'714.9
2018-Feb-22 05:00N 25°34' W 079°44'815.1
2018-Feb-22 04:30N 25°39' W 079°38'5716.3
2018-Feb-22 01:00N 26°06' W 078°42'5 0.1 090 / 221027.027.0 23.021.625.0
2018-Feb-20 04:00N 26°06' W 078°48'4411.8 090 / 261025.010.8 23.020.125.0
2018-Feb-20 00:15N 25°59' W 079°37'313.4
2018-Feb-19 23:59N 25°58' W 079°40'713.8
2018-Feb-19 23:30N 25°55' W 079°47'714.0
2018-Feb-19 23:00N 25°52' W 079°54'714.1
2018-Feb-19 22:30N 25°48' W 080°00'510.3
2018-Feb-19 22:00N 25°46' W 080°05'5 9.3
2018-Feb-19 21:30N 25°47' W 080°10'0 0.2
2018-Feb-19 20:58N 25°47' W 080°11'0 0.0
2018-Feb-19 20:28N 25°47' W 080°11'0 0.0
2018-Feb-19 19:58N 25°47' W 080°11'0 0.0
2018-Feb-19 19:28N 25°47' W 080°11'0 0.0
2018-Feb-19 18:52N 25°47' W 080°11'0 0.0
2018-Feb-19 18:25N 25°47' W 080°11'0 0.0
2018-Feb-19 17:58N 25°47' W 080°11'0 0.0
2018-Feb-19 17:25N 25°47' W 080°11'0 0.0
2018-Feb-19 16:58N 25°47' W 080°11'0 0.0
2018-Feb-19 16:25N 25°47' W 080°11'0 0.0
2018-Feb-19 15:58N 25°47' W 080°11'0 0.0
2018-Feb-19 15:28N 25°47' W 080°11'0 0.0
2018-Feb-19 14:55N 25°47' W 080°11'0 0.0
2018-Feb-19 14:28N 25°47' W 080°11'0 0.0
2018-Feb-19 13:58N 25°47' W 080°11'0 0.0
2018-Feb-19 13:28N 25°47' W 080°11'0 0.0
2018-Feb-19 12:58N 25°47' W 080°11'0 0.0
2018-Feb-19 12:28N 25°47' W 080°11'0 0.0
2018-Feb-19 11:58N 25°47' W 080°11'0 1.0
2018-Feb-19 11:30N 25°47' W 080°10'5 9.5
2018-Feb-19 11:00N 25°46' W 080°05'510.6
2018-Feb-19 10:30N 25°48' W 079°59'612.9
2018-Feb-19 10:01N 25°52' W 079°53'713.2
2018-Feb-19 09:30N 25°55' W 079°47'12513.1
2018-Feb-19 00:00N 25°36' W 077°30'16 0.8 090 / 211024.027.0 23.020.125.0
2018-Feb-18 03:00N 25°24' W 077°18'65 3.8 110 / 121024.027.0 23.020.125.0
2018-Feb-17 10:00N 26°00' W 078°18'60 7.4 150 / 101021.410.8 22.019.0
2018-Feb-17 02:00N 26°06' W 079°24'619.8 160 / 91024.027.0 23.020.125.0
2018-Feb-17 01:41N 26°04' W 079°31'5 9.3
2018-Feb-17 01:10N 26°02' W 079°35'2 9.3
2018-Feb-17 00:59N 26°01' W 079°37'4 9.4
2018-Feb-17 00:30N 25°59' W 079°41'5 9.7
2018-Feb-17 00:00N 25°57' W 079°46'5 9.9
2018-Feb-16 23:30N 25°54' W 079°51'510.0
2018-Feb-16 23:00N 25°51' W 079°55'5 9.7
2018-Feb-16 22:30N 25°49' W 079°60'5 9.4
2018-Feb-16 22:00N 25°47' W 080°04'5 9.1
2018-Feb-16 21:31N 25°46' W 080°09'1 1.8
2018-Feb-16 21:01N 25°47' W 080°10'0 0.0
2018-Feb-16 20:30N 25°47' W 080°10'0 0.0
2018-Feb-16 20:00N 25°47' W 080°10'0 0.0
2018-Feb-16 19:31N 25°47' W 080°10'0 0.0
2018-Feb-16 19:00N 25°47' W 080°10'0 0.0
2018-Feb-16 18:31N 25°47' W 080°10'0 0.0
2018-Feb-16 18:01N 25°47' W 080°10'0 0.0
2018-Feb-16 17:30N 25°47' W 080°10'0 0.0
2018-Feb-16 17:01N 25°47' W 080°10'0 0.0
2018-Feb-16 16:30N 25°47' W 080°10'0 0.0
2018-Feb-16 16:00N 25°47' W 080°10'0 0.0
2018-Feb-16 15:25N 25°47' W 080°10'0 0.0
2018-Feb-16 14:55N 25°47' W 080°10'0 0.0
2018-Feb-16 14:28N 25°47' W 080°10'0 0.0
2018-Feb-16 13:58N 25°47' W 080°10'0 0.0
2018-Feb-16 13:28N 25°47' W 080°10'0 0.0
2018-Feb-16 12:58N 25°47' W 080°10'0 0.0
2018-Feb-16 12:28N 25°47' W 080°10'0 0.9
2018-Feb-16 12:00N 25°47' W 080°11'2 3.7
2018-Feb-16 11:30N 25°46' W 080°09'510.9
2018-Feb-16 11:00N 25°47' W 080°03'510.0
2018-Feb-16 10:30N 25°44' W 079°58'612.9
2018-Feb-16 10:00N 25°38' W 079°58'713.4
2018-Feb-16 09:30N 25°31' W 079°59'713.2
2018-Feb-16 09:00N 25°24' W 080°00'8614.2
2018-Feb-16 03:00N 24°18' W 081°00'81 3.9 090 / 131024.027.0 23.016.925.0
2018-Feb-15 06:17N 25°18' W 079°59'413.7
2018-Feb-15 05:59N 25°21' W 079°57'713.8
2018-Feb-15 05:30N 25°26' W 079°52'714.1
2018-Feb-15 05:00N 25°31' W 079°47'714.3
2018-Feb-15 04:29N 25°37' W 079°41'714.5
2018-Feb-15 03:59N 25°42' W 079°36'1615.9
2018-Feb-15 03:00N 25°54' W 079°24'111 5.8 100 / 111027.027.0 22.019.025.0
2018-Feb-14 08:00N 25°30' W 077°24'112 3.6 100 / 271026.910.8 23.018.5
2018-Feb-13 01:00N 26°00' W 079°24'815.2 090 / 141025.027.0 24.021.125.0
2018-Feb-13 00:30N 26°01' W 079°32'714.0
2018-Feb-13 00:00N 25°58' W 079°39'713.9
2018-Feb-12 23:31N 25°55' W 079°46'714.2
2018-Feb-12 23:00N 25°52' W 079°53'714.6
2018-Feb-12 22:31N 25°48' W 080°00'713.0
2018-Feb-12 22:00N 25°45' W 080°07'4 7.9
2018-Feb-12 21:30N 25°47' W 080°11'0 0.2
2018-Feb-12 20:55N 25°47' W 080°11'0 0.0
2018-Feb-12 20:28N 25°47' W 080°11'0 0.0
2018-Feb-12 19:58N 25°47' W 080°11'0 0.0
2018-Feb-12 19:28N 25°47' W 080°11'0 0.0
2018-Feb-12 18:58N 25°47' W 080°11'0 0.0
2018-Feb-12 18:28N 25°47' W 080°11'0 0.0
2018-Feb-12 17:58N 25°47' W 080°11'0 0.0
2018-Feb-12 17:28N 25°47' W 080°11'0 0.0
2018-Feb-12 16:58N 25°47' W 080°11'0 0.0
2018-Feb-12 16:28N 25°47' W 080°11'0 0.0
2018-Feb-12 15:58N 25°47' W 080°11'0 0.0
2018-Feb-12 15:28N 25°47' W 080°11'0 0.0
2018-Feb-12 14:58N 25°47' W 080°11'0 0.0
2018-Feb-12 14:28N 25°47' W 080°11'0 0.0
2018-Feb-12 13:58N 25°47' W 080°11'0 0.0
2018-Feb-12 13:28N 25°47' W 080°11'0 0.0
2018-Feb-12 12:58N 25°47' W 080°11'0 0.0
2018-Feb-12 12:28N 25°47' W 080°11'0 0.0
2018-Feb-12 11:52N 25°47' W 080°11'0 1.0
2018-Feb-12 11:30N 25°47' W 080°10'510.1
2018-Feb-12 11:00N 25°46' W 080°05'611.2
2018-Feb-12 10:30N 25°49' W 079°59'713.2
2018-Feb-12 09:59N 25°52' W 079°52'613.3
2018-Feb-12 09:29N 25°55' W 079°46'  

Dump ship's entire track history